createdAt,value
2019-04-01T00:02:00.767Z,70.43
2019-04-01T00:04:29.728Z,70.92
2019-04-01T00:06:58.768Z,70.98
2019-04-01T00:09:27.719Z,70.89
2019-04-01T00:11:56.654Z,70.25
2019-04-01T00:14:25.703Z,70.94
2019-04-01T00:16:54.665Z,71.44
2019-04-01T00:19:23.640Z,71.81
2019-04-01T00:21:52.730Z,70.50
2019-04-01T00:24:21.461Z,72.11
2019-04-01T00:26:50.176Z,72.57
2019-04-01T00:29:19.143Z,71.25
2019-04-01T00:31:48.341Z,71.57
2019-04-01T00:34:17.064Z,71.46
2019-04-01T00:36:45.757Z,71.63
2019-04-01T00:39:14.841Z,71.64
2019-04-01T00:41:51.370Z,72.03
2019-04-01T00:44:20.436Z,72.60
2019-04-01T00:46:49.395Z,71.93
2019-04-01T00:49:18.154Z,73.93
2019-04-01T00:51:47.176Z,72.58
2019-04-01T00:54:16.211Z,72.15
2019-04-01T00:56:44.921Z,71.97
2019-04-01T00:59:13.895Z,72.94
2019-04-01T01:01:42.615Z,73.76
2019-04-01T01:04:11.619Z,72.57
2019-04-01T01:06:40.930Z,72.07
2019-04-01T01:09:09.973Z,73.69
2019-04-01T01:11:38.732Z,71.67
2019-04-01T01:14:07.700Z,72.41
2019-04-01T01:16:36.523Z,72.12
2019-04-01T01:19:05.265Z,72.10
2019-04-01T01:21:35.498Z,73.25
2019-04-01T01:24:04.783Z,74.38
2019-04-01T01:26:33.719Z,74.82
2019-04-01T01:29:02.489Z,73.00
2019-04-01T01:31:31.229Z,72.63
2019-04-01T01:34:00.259Z,73.52
2019-04-01T01:36:29.232Z,73.59
2019-04-01T01:38:58.161Z,74.50
2019-04-01T01:41:27.113Z,73.55
2019-04-01T01:43:56.485Z,74.34
2019-04-01T01:46:25.462Z,72.65
2019-04-01T01:48:54.402Z,73.78
2019-04-01T01:51:23.491Z,74.05
2019-04-01T01:53:53.268Z,73.59
2019-04-01T01:56:22.323Z,73.74
2019-04-01T01:58:51.285Z,74.63
2019-04-01T02:01:20.205Z,73.25
2019-04-01T02:03:49.229Z,75.06
2019-04-01T02:06:18.161Z,74.32
2019-04-01T02:08:46.895Z,75.87
2019-04-01T02:11:15.698Z,76.59
2019-04-01T02:13:44.668Z,76.00
2019-04-01T02:16:13.756Z,75.25
2019-04-01T02:18:42.717Z,74.71
2019-04-01T02:21:11.674Z,74.09
2019-04-01T02:23:40.869Z,73.92
2019-04-01T02:26:09.583Z,75.72
2019-04-01T02:28:38.578Z,75.35
2019-04-01T02:31:07.535Z,74.92
2019-04-01T02:33:36.255Z,74.24
2019-04-01T02:36:05.058Z,74.84
2019-04-01T02:38:34.018Z,75.94
2019-04-01T02:41:03.124Z,74.91
2019-04-01T02:43:31.956Z,75.51
2019-04-01T02:46:00.877Z,75.21
2019-04-01T02:48:29.586Z,74.39
2019-04-01T02:50:58.358Z,74.88
2019-04-01T02:53:27.318Z,75.09
2019-04-01T02:55:56.294Z,74.54
2019-04-01T02:58:25.331Z,74.24
2019-04-01T03:00:54.148Z,75.23
2019-04-01T03:03:25.307Z,75.72
2019-04-01T03:05:54.083Z,75.96
2019-04-01T03:08:23.111Z,74.83
2019-04-01T03:10:51.833Z,75.54
2019-04-01T03:13:20.661Z,75.77
2019-04-01T03:15:49.629Z,74.79
2019-04-01T03:18:18.563Z,74.65
2019-04-01T03:20:47.549Z,76.67
2019-04-01T03:23:16.584Z,76.24
2019-04-01T03:25:45.772Z,76.35
2019-04-01T03:28:14.515Z,75.52
2019-04-01T03:30:43.537Z,76.21
2019-04-01T03:33:12.764Z,76.47
2019-04-01T03:35:41.844Z,75.79
2019-04-01T03:38:11.838Z,74.91
2019-04-01T03:40:40.810Z,74.65
2019-04-01T03:43:09.664Z,74.98
2019-04-01T03:45:38.502Z,74.82
2019-04-01T03:48:07.250Z,75.38
2019-04-01T03:50:36.352Z,75.54
2019-04-01T03:53:05.275Z,74.94
2019-04-01T03:55:35.209Z,75.84
2019-04-01T03:58:04.047Z,75.24
2019-04-01T04:00:32.831Z,76.10
2019-04-01T04:03:01.938Z,76.45
2019-04-01T04:05:30.657Z,75.50
2019-04-01T04:08:00.011Z,76.30
2019-04-01T04:10:28.972Z,76.26
2019-04-01T04:12:57.917Z,76.44
2019-04-01T04:15:26.733Z,75.91
2019-04-01T04:17:55.453Z,75.95
2019-04-01T04:20:24.417Z,76.26
2019-04-01T04:22:53.454Z,75.59
2019-04-01T04:25:22.431Z,75.79
2019-04-01T04:27:51.233Z,77.06
2019-04-01T04:30:20.452Z,75.88
2019-04-01T04:32:49.262Z,76.83
2019-04-01T04:35:18.215Z,76.96
2019-04-01T04:37:46.914Z,78.00
2019-04-01T04:40:16.250Z,78.08
2019-04-01T04:42:45.956Z,76.91
2019-04-01T04:45:15.032Z,77.65
2019-04-01T04:47:43.925Z,77.95
2019-04-01T04:50:13.052Z,76.56
2019-04-01T04:52:42.031Z,76.57
2019-04-01T04:55:11.189Z,76.13
2019-04-01T04:57:40.980Z,76.59
2019-04-01T05:00:10.293Z,76.39
2019-04-01T05:02:39.414Z,76.31
2019-04-01T05:05:08.463Z,75.92
2019-04-01T05:07:37.494Z,76.13
2019-04-01T05:10:06.827Z,76.57
2019-04-01T05:12:35.870Z,76.46
2019-04-01T05:15:05.133Z,75.41
2019-04-01T05:17:34.156Z,76.01
2019-04-01T05:20:02.971Z,76.65
2019-04-01T05:22:31.921Z,75.83
2019-04-01T05:25:01.786Z,77.09
2019-04-01T05:27:32.381Z,77.76
2019-04-01T05:30:02.741Z,77.00
2019-04-01T05:32:32.639Z,77.40
2019-04-01T05:35:04.118Z,76.68
2019-04-01T05:37:33.143Z,76.59
2019-04-01T05:40:02.853Z,76.84
2019-04-01T05:42:32.609Z,76.54
2019-04-01T05:45:01.635Z,76.01
2019-04-01T05:47:35.557Z,75.09
2019-04-01T05:50:04.980Z,76.52
2019-04-01T05:52:33.790Z,75.23
2019-04-01T05:55:02.700Z,74.54
2019-04-01T05:57:32.099Z,74.18
2019-04-01T06:00:01.145Z,74.51
2019-04-01T06:02:30.508Z,73.07
2019-04-01T06:04:59.366Z,72.82
2019-04-01T06:07:28.647Z,72.10
2019-04-01T06:09:57.757Z,72.44
2019-04-01T06:12:26.715Z,70.92
2019-04-01T06:14:55.944Z,71.87
2019-04-01T06:17:25.056Z,72.60
2019-04-01T06:19:54.302Z,70.34
2019-04-01T06:22:23.109Z,69.91
2019-04-01T06:24:52.377Z,70.05
2019-04-01T06:27:21.508Z,69.68
2019-04-01T06:29:50.602Z,68.69
2019-04-01T06:32:20.532Z,68.74
2019-04-01T06:34:52.945Z,67.66
2019-04-01T06:37:20.698Z,68.46
2019-04-01T06:39:49.620Z,67.16
2019-04-01T06:42:18.751Z,67.28
2019-04-01T06:44:47.818Z,66.40
2019-04-01T06:47:17.265Z,67.45
2019-04-01T06:49:46.012Z,66.39
2019-04-01T06:52:15.009Z,66.08
2019-04-01T06:54:44.024Z,65.15
2019-04-01T06:57:12.994Z,64.77
2019-04-01T06:59:42.569Z,64.98
2019-04-01T07:02:11.642Z,64.56
2019-04-01T07:04:40.686Z,63.67
2019-04-01T07:07:18.777Z,63.69
2019-04-01T07:09:41.327Z,63.78
2019-04-01T07:12:10.180Z,63.59
2019-04-01T07:14:39.030Z,62.51
2019-04-01T07:17:07.826Z,62.69
2019-04-01T07:19:36.975Z,61.88
2019-04-01T07:22:05.999Z,61.91
2019-04-01T07:24:35.067Z,61.45
2019-04-01T07:27:07.829Z,60.76
2019-04-01T07:29:34.990Z,60.12
2019-04-01T07:32:03.856Z,60.10
2019-04-01T07:34:33.235Z,59.28
2019-04-01T07:37:02.486Z,59.42
2019-04-01T07:39:31.371Z,58.68
2019-04-01T07:42:00.247Z,59.17
2019-04-01T07:44:29.086Z,57.98
2019-04-01T07:46:58.421Z,56.63
2019-04-01T07:49:27.414Z,57.19
2019-04-01T07:51:56.264Z,57.54
2019-04-01T07:54:25.319Z,57.39
2019-04-01T07:56:54.350Z,56.47
2019-04-01T07:59:23.162Z,56.70
2019-04-01T08:01:52.974Z,55.86
2019-04-01T08:04:22.267Z,54.69
2019-04-01T08:06:51.644Z,52.67
2019-04-01T08:09:21.225Z,54.37
2019-04-01T08:11:50.380Z,51.44
2019-04-01T08:14:19.589Z,53.15
2019-04-01T08:16:48.338Z,51.36
2019-04-01T08:19:17.136Z,54.62
2019-04-01T08:21:46.336Z,53.77
2019-04-01T08:24:15.368Z,51.85
2019-04-01T08:26:44.681Z,50.79
2019-04-01T08:29:13.465Z,52.81
2019-04-01T08:31:42.363Z,52.29
2019-04-01T08:34:11.224Z,52.68
2019-04-01T08:36:40.261Z,51.63
2019-04-01T08:39:13.720Z,48.43
2019-04-01T08:41:43.061Z,46.94
2019-04-01T08:44:12.230Z,48.71
2019-04-01T08:46:41.277Z,49.54
2019-04-01T08:49:09.965Z,47.10
2019-04-01T08:51:39.853Z,50.10
2019-04-01T08:54:08.704Z,44.36
2019-04-01T08:56:38.350Z,48.66
2019-04-01T08:59:07.333Z,44.54
2019-04-01T09:01:36.282Z,49.22
2019-04-01T09:04:05.261Z,47.09
2019-04-01T09:06:34.387Z,41.35
2019-04-01T09:09:05.709Z,47.60
2019-04-01T09:11:38.062Z,45.95
2019-04-01T09:14:05.258Z,47.85
2019-04-01T09:16:35.224Z,46.54
2019-04-01T09:19:04.036Z,36.98
2019-04-01T09:21:32.994Z,46.51
2019-04-01T09:24:01.815Z,45.48
2019-04-01T09:26:30.603Z,44.77
2019-04-01T09:28:59.386Z,47.32
2019-04-01T09:31:28.899Z,39.83
2019-04-01T09:33:57.754Z,44.81
2019-04-01T09:36:27.146Z,45.93
2019-04-01T09:38:56.128Z,37.65
2019-04-01T09:41:25.135Z,37.23
2019-04-01T09:43:54.471Z,42.80
2019-04-01T09:46:23.442Z,44.79
2019-04-01T09:48:52.199Z,44.16
2019-04-01T09:51:22.421Z,44.52
2019-04-01T09:53:51.157Z,44.85
2019-04-01T09:56:20.262Z,37.84
2019-04-01T09:58:49.215Z,39.09
2019-04-01T10:01:18.383Z,41.00
2019-04-01T10:03:47.144Z,44.51
2019-04-01T10:06:16.314Z,37.75
2019-04-01T10:08:45.101Z,40.27
2019-04-01T10:11:13.818Z,42.21
2019-04-01T10:13:42.981Z,42.92
2019-04-01T10:16:11.905Z,40.78
2019-04-01T10:18:40.693Z,36.70
2019-04-01T10:21:09.675Z,35.95
2019-04-01T10:23:38.461Z,35.29
2019-04-01T10:26:07.510Z,42.47
2019-04-01T10:28:36.567Z,38.08
2019-04-01T10:31:05.557Z,38.40
2019-04-01T10:33:34.287Z,42.39
2019-04-01T10:36:03.117Z,42.16
2019-04-01T10:38:31.864Z,39.82
2019-04-01T10:41:00.578Z,41.85
2019-04-01T10:43:29.594Z,40.15
2019-04-01T10:45:59.575Z,39.83
2019-04-01T10:48:28.778Z,35.14
2019-04-01T10:50:58.024Z,35.39
2019-04-01T10:53:26.874Z,41.12
2019-04-01T10:55:55.674Z,41.42
2019-04-01T10:58:24.550Z,36.26
2019-04-01T11:00:53.605Z,34.96
2019-04-01T11:03:22.626Z,37.30
2019-04-01T11:05:51.370Z,40.52
2019-04-01T11:08:20.342Z,37.34
2019-04-01T11:10:49.382Z,34.56
2019-04-01T11:13:18.205Z,34.64
2019-04-01T11:15:47.083Z,39.96
2019-04-01T11:18:16.141Z,36.44
2019-04-01T11:20:45.127Z,37.59
2019-04-01T11:23:14.161Z,33.35
2019-04-01T11:25:43.318Z,34.70
2019-04-01T11:28:12.061Z,32.15
2019-04-01T11:30:41.002Z,37.92
2019-04-01T11:33:10.178Z,36.10
2019-04-01T11:35:39.346Z,39.71
2019-04-01T11:38:08.107Z,34.06
2019-04-01T11:40:38.869Z,37.27
2019-04-01T11:43:08.013Z,39.26
2019-04-01T11:45:37.090Z,36.45
2019-04-01T11:48:06.027Z,35.98
2019-04-01T11:50:34.943Z,34.52
2019-04-01T11:53:03.949Z,33.86
2019-04-01T11:55:32.738Z,40.34
2019-04-01T11:58:01.984Z,39.13
2019-04-01T12:00:31.013Z,38.04
2019-04-01T12:02:59.959Z,37.03
2019-04-01T12:05:29.101Z,36.59
2019-04-01T12:07:58.162Z,32.46
2019-04-01T12:10:27.305Z,41.58
2019-04-01T12:12:56.806Z,40.01
2019-04-01T12:15:25.840Z,39.16
2019-04-01T12:17:54.741Z,42.88
2019-04-01T12:20:24.143Z,43.31
2019-04-01T12:22:53.100Z,41.86
2019-04-01T12:25:22.069Z,42.79
2019-04-01T12:27:51.007Z,43.03
2019-04-01T12:30:19.973Z,41.80
2019-04-01T12:32:49.730Z,39.22
2019-04-01T12:35:19.329Z,39.43
2019-04-01T12:37:48.280Z,40.26
2019-04-01T12:40:17.308Z,38.89
2019-04-01T12:42:46.549Z,40.32
2019-04-01T12:45:16.053Z,39.86
2019-04-01T12:47:44.858Z,39.70
2019-04-01T12:50:14.014Z,38.03
2019-04-01T12:52:43.145Z,38.08
2019-04-01T12:55:12.332Z,39.25
2019-04-01T12:57:41.309Z,37.40
2019-04-01T13:00:11.934Z,35.79
2019-04-01T13:02:41.074Z,37.17
2019-04-01T13:05:10.388Z,39.14
2019-04-01T13:07:39.409Z,39.09
2019-04-01T13:10:09.897Z,36.80
2019-04-01T13:12:38.894Z,38.55
2019-04-01T13:15:08.217Z,38.73
2019-04-01T13:17:36.902Z,38.21
2019-04-01T13:20:06.471Z,37.46
2019-04-01T13:22:35.714Z,38.00
2019-04-01T13:25:05.778Z,37.20
2019-04-01T13:27:34.928Z,38.45
2019-04-01T13:30:04.325Z,36.26
2019-04-01T13:32:33.131Z,36.75
2019-04-01T13:35:02.094Z,38.47
2019-04-01T13:37:31.354Z,38.64
2019-04-01T13:40:02.729Z,35.22
2019-04-01T13:42:30.844Z,35.86
2019-04-01T13:45:01.840Z,36.86
2019-04-01T13:47:30.011Z,36.94
2019-04-01T13:49:58.974Z,37.02
2019-04-01T13:52:27.954Z,36.89
2019-04-01T13:54:56.681Z,36.25
2019-04-01T13:57:25.775Z,35.96
2019-04-01T13:59:56.325Z,36.11
2019-04-01T14:02:27.019Z,37.04
2019-04-01T14:04:56.268Z,35.79
2019-04-01T14:07:25.277Z,37.16
2019-04-01T14:09:55.224Z,35.75
2019-04-01T14:12:24.593Z,35.16
2019-04-01T14:14:53.550Z,35.64
2019-04-01T14:17:22.628Z,36.03
2019-04-01T14:19:51.597Z,35.03
2019-04-01T14:22:20.586Z,35.78
2019-04-01T14:24:49.635Z,36.28
2019-04-01T14:27:18.527Z,36.55
2019-04-01T14:29:47.569Z,36.66
2019-04-01T14:32:18.185Z,36.32
2019-04-01T14:34:50.316Z,36.83
2019-04-01T14:37:25.069Z,34.68
2019-04-01T14:39:48.613Z,36.15
2019-04-01T14:42:17.592Z,36.25
2019-04-01T14:44:58.750Z,35.17
2019-04-01T14:47:28.095Z,34.61
2019-04-01T14:49:57.109Z,34.79
2019-04-01T14:52:32.802Z,36.31
2019-04-01T14:54:57.710Z,35.04
2019-04-01T14:57:26.483Z,34.75
2019-04-01T14:59:56.370Z,35.79
2019-04-01T15:02:25.509Z,36.04
2019-04-01T15:04:54.538Z,34.99
2019-04-01T15:07:23.637Z,36.46
2019-04-01T15:09:52.634Z,36.01
2019-04-01T15:12:21.374Z,35.98
2019-04-01T15:14:50.313Z,35.21
2019-04-01T15:17:19.113Z,34.19
2019-04-01T15:19:48.690Z,35.92
2019-04-01T15:22:17.705Z,34.98
2019-04-01T15:24:46.670Z,35.47
2019-04-01T15:27:15.652Z,36.09
2019-04-01T15:29:45.519Z,36.42
2019-04-01T15:32:14.281Z,35.51
2019-04-01T15:34:43.359Z,36.56
2019-04-01T15:37:12.363Z,35.17
2019-04-01T15:39:41.343Z,36.24
2019-04-01T15:42:10.323Z,36.11
2019-04-01T15:44:39.407Z,36.29
2019-04-01T15:47:08.912Z,35.44
2019-04-01T15:49:38.328Z,35.39
2019-04-01T15:52:07.621Z,34.67
2019-04-01T15:54:36.683Z,36.37
2019-04-01T15:57:05.742Z,35.87
2019-04-01T15:59:34.839Z,36.39
2019-04-01T16:02:03.947Z,36.24
2019-04-01T16:04:32.926Z,36.53
2019-04-01T16:07:13.955Z,35.82
2019-04-01T16:09:47.112Z,36.06
2019-04-01T16:12:17.946Z,36.49
2019-04-01T16:15:58.671Z,35.87
2019-04-01T16:22:16.156Z,36.74
2019-04-01T16:24:45.301Z,36.61
2019-04-01T16:27:27.995Z,36.46
2019-04-01T16:30:01.902Z,36.54
2019-04-01T16:32:29.201Z,36.01
2019-04-01T16:34:58.629Z,36.54
2019-04-01T16:37:27.620Z,35.94
2019-04-01T16:39:59.764Z,34.95
2019-04-01T16:42:28.659Z,35.86
2019-04-01T16:44:57.657Z,35.90
2019-04-01T16:47:27.016Z,35.72
2019-04-01T16:49:55.971Z,36.23
2019-04-01T16:52:24.938Z,35.60
2019-04-01T16:55:00.214Z,36.39
2019-04-01T16:57:29.074Z,35.90
2019-04-01T16:59:57.853Z,36.55
2019-04-01T17:02:26.654Z,36.39
2019-04-01T17:04:55.659Z,36.71
2019-04-01T17:07:24.491Z,36.04
2019-04-01T17:09:53.469Z,36.69
2019-04-01T17:12:22.452Z,36.16
2019-04-01T17:14:53.330Z,35.92
2019-04-01T17:17:22.934Z,36.61
2019-04-01T17:19:53.763Z,36.46
2019-04-01T17:22:22.964Z,37.01
2019-04-01T17:24:52.010Z,37.39
2019-04-01T17:27:21.049Z,37.44
2019-04-01T17:29:50.041Z,37.27
2019-04-01T17:32:19.005Z,37.57
2019-04-01T17:34:48.191Z,36.21
2019-04-01T17:37:17.243Z,37.05
2019-04-01T17:39:46.197Z,37.94
2019-04-01T17:42:16.131Z,38.14
2019-04-01T17:44:46.084Z,38.44
2019-04-01T17:47:15.141Z,38.35
2019-04-01T17:49:47.680Z,38.63
2019-04-01T17:52:16.727Z,38.81
2019-04-01T17:54:47.992Z,39.10
2019-04-01T17:57:17.161Z,39.77
2019-04-01T17:59:46.452Z,39.78
2019-04-01T18:02:24.827Z,40.19
2019-04-01T18:04:54.429Z,39.97
2019-04-01T18:07:24.530Z,40.20
2019-04-01T18:09:53.575Z,40.16
2019-04-01T18:12:23.874Z,40.69
2019-04-01T18:14:53.035Z,40.84
2019-04-01T18:17:21.970Z,41.08
2019-04-01T18:19:50.751Z,41.05
2019-04-01T18:22:19.685Z,41.23
2019-04-01T18:24:48.655Z,41.12
2019-04-01T18:27:17.649Z,41.04
2019-04-01T18:29:46.642Z,40.75
2019-04-01T18:32:15.740Z,40.80
2019-04-01T18:34:45.030Z,40.72
2019-04-01T18:37:13.927Z,40.80
2019-04-01T18:39:48.434Z,41.44
2019-04-01T18:42:13.458Z,42.72
2019-04-01T18:44:44.555Z,44.82
2019-04-01T18:47:13.422Z,46.03
2019-04-01T18:49:42.661Z,50.32
2019-04-01T18:52:11.584Z,48.41
2019-04-01T18:54:40.563Z,45.91
2019-04-01T18:57:09.538Z,46.48
2019-04-01T18:59:38.504Z,47.22
2019-04-01T19:02:07.296Z,48.55
2019-04-01T19:04:36.242Z,53.36
2019-04-01T19:07:05.331Z,48.55
2019-04-01T19:09:34.358Z,48.65
2019-04-01T19:12:04.391Z,49.14
2019-04-01T19:14:33.758Z,52.12
2019-04-01T19:17:02.721Z,48.87
2019-04-01T19:19:34.892Z,49.44
2019-04-01T19:22:04.992Z,49.55
2019-04-01T19:24:34.143Z,49.57
2019-04-01T19:27:04.602Z,50.04
2019-04-01T19:29:33.886Z,49.92
2019-04-01T19:32:02.845Z,50.26
2019-04-01T19:34:31.891Z,50.28
2019-04-01T19:37:00.613Z,50.49
2019-04-01T19:39:30.337Z,52.51
2019-04-01T19:41:59.610Z,51.99
2019-04-01T19:44:28.649Z,50.92
2019-04-01T19:46:57.390Z,51.49
2019-04-01T19:49:26.455Z,51.47
2019-04-01T19:51:56.305Z,51.09
2019-04-01T19:54:31.505Z,51.87
2019-04-01T19:56:56.817Z,52.37
2019-04-01T19:59:26.160Z,52.88
2019-04-01T20:01:55.088Z,52.45
2019-04-01T20:04:23.798Z,52.20
2019-04-01T20:06:52.879Z,52.86
2019-04-01T20:09:21.946Z,52.04
2019-04-01T20:11:53.850Z,51.78
2019-04-01T20:14:22.935Z,51.94
2019-04-01T20:16:52.017Z,51.67
2019-04-01T20:19:21.033Z,51.48
2019-04-01T20:21:49.783Z,51.23
2019-04-01T20:24:19.334Z,50.12
2019-04-01T20:26:48.569Z,49.93
2019-04-01T20:29:17.509Z,49.93
2019-04-01T20:31:48.068Z,49.50
2019-04-01T20:34:19.949Z,48.90
2019-04-01T20:36:47.871Z,48.59
2019-04-01T20:39:16.578Z,48.64
2019-04-01T20:41:49.989Z,48.44
2019-04-01T20:44:20.738Z,47.55
2019-04-01T20:46:52.628Z,47.30
2019-04-01T20:49:26.207Z,47.07
2019-04-01T20:51:58.937Z,47.09
2019-04-01T20:54:29.133Z,47.68
2019-04-01T20:56:58.137Z,47.11
2019-04-01T20:59:27.421Z,47.03
2019-04-01T21:02:02.127Z,46.65
2019-04-01T21:04:32.387Z,46.85
2019-04-01T21:07:03.702Z,46.38
2019-04-01T21:09:32.749Z,45.78
2019-04-01T21:12:03.049Z,44.79
2019-04-01T21:14:32.316Z,45.75
2019-04-01T21:17:01.552Z,46.42
2019-04-01T21:19:33.527Z,45.85
2019-04-01T21:22:02.452Z,46.25
2019-04-01T21:24:31.561Z,45.88
2019-04-01T21:27:00.688Z,46.13
2019-04-01T21:29:29.563Z,45.97
2019-04-01T21:31:58.573Z,45.76
2019-04-01T21:34:27.604Z,45.94
2019-04-01T21:36:56.632Z,46.13
2019-04-01T21:39:25.606Z,45.94
2019-04-01T21:41:54.384Z,46.02
2019-04-01T21:44:23.518Z,46.12
2019-04-01T21:46:52.848Z,46.16
2019-04-01T21:49:21.805Z,46.31
2019-04-01T21:51:50.782Z,46.05
2019-04-01T21:54:19.800Z,46.19
2019-04-01T21:56:49.308Z,46.39
2019-04-01T21:59:18.559Z,46.63
2019-04-01T22:01:47.183Z,46.36
2019-04-01T22:04:16.246Z,46.57
2019-04-01T22:06:45.522Z,46.52
2019-04-01T22:09:14.465Z,46.35
2019-04-01T22:11:43.450Z,46.47
2019-04-01T22:14:12.465Z,46.78
2019-04-01T22:16:41.490Z,46.44
2019-04-01T22:19:12.055Z,46.67
2019-04-01T22:21:41.253Z,47.41
2019-04-01T22:24:10.164Z,47.45
2019-04-01T22:26:39.129Z,46.95
2019-04-01T22:29:08.204Z,46.83
2019-04-01T22:31:38.455Z,47.83
2019-04-01T22:34:09.025Z,46.96
2019-04-01T22:36:39.905Z,47.30
2019-04-01T22:39:08.940Z,47.15
2019-04-01T22:41:37.703Z,47.15
2019-04-01T22:44:19.643Z,48.40
2019-04-01T22:47:02.399Z,47.73
2019-04-01T22:49:28.800Z,47.87
2019-04-01T22:51:57.742Z,47.92
2019-04-01T22:54:26.703Z,48.61
2019-04-01T22:56:58.626Z,48.71
2019-04-01T22:59:33.933Z,48.22
2019-04-01T23:02:30.624Z,48.19
2019-04-01T23:05:16.050Z,48.24
2019-04-01T23:08:18.501Z,48.87
2019-04-01T23:14:44.034Z,48.49
2019-04-01T23:17:18.395Z,48.90
2019-04-01T23:19:50.655Z,49.13
2019-04-01T23:22:29.073Z,49.47
2019-04-01T23:24:56.399Z,49.20
2019-04-01T23:27:26.352Z,49.54
2019-04-01T23:29:55.079Z,49.93
2019-04-01T23:32:23.784Z,49.67
2019-04-01T23:34:52.779Z,49.21
2019-04-01T23:37:21.640Z,50.18
2019-04-01T23:39:50.831Z,49.75
2019-04-01T23:42:19.555Z,49.87
2019-04-01T23:44:48.336Z,49.71
2019-04-01T23:47:17.315Z,49.60
2019-04-01T23:49:46.027Z,49.73
2019-04-01T23:52:14.995Z,49.71
2019-04-01T23:54:43.780Z,49.97
2019-04-01T23:57:12.503Z,49.74
2019-04-01T23:59:41.800Z,49.38
